Moscow, OH

16:34 EST le 30 janvier 2015 (GMT -0500)
Cincinnati Municipal-Lunken | Change Station
CLOSE
Current Station
Aéroport
Location: Cincinnati,
Altitude: 482 ft
Stations météo à proximité

Alt. 482 ft 39.10 °N, 84.42 °W | Updated 41 minutes ago

Partiellement nuageux
Partiellement nuageux
31 ° F
Paraît 24 ° F
N
7
Vent Variable Vent de NNO

Aujourd'hui
Haut(e) -- | Bas -- ° F
--% Risque de précip.
Hier
Haut(e) -- | Bas -- ° F
Precip. -- pouce
7:44 AM 5:55 PM
Lune gibbeuse croissante, 85% visible
Pression 30.49 pouce
Visibilité 10.0 Miles terrestres
Nuages Ciel dégagé
Refroidissement éolien 24 ° F
Point de rosée 14 ° F
Humidité 50%
Précipitations 0.00 pouce
Profondeur de la couche neigeuse Non disponible.
UV 1 sur 12
Pollen .10 sur 12
Qualité de l'air Non disponible.
Flu Activity Non disponible.
METAR KLUK 302053Z 34006KT 10SM CLR M01/M10 A3047 RMK AO2 SLP323 T10061100 56004

More Conditions Fewer Conditions

Pression 30.49 pouce
Visibilité 10.0 Miles terrestres
Nuages Ciel dégagé
Refroidissement éolien 24 ° F
Point de rosée 14 ° F
Humidité 50%
Précipitations 0.00 pouce
Profondeur de la couche neigeuse Non disponible.
UV 1 sur 12
Pollen .10 sur 12
Qualité de l'air Non disponible.
Flu Activity Non disponible.
METAR KLUK 302053Z 34006KT 10SM CLR M01/M10 A3047 RMK AO2 SLP323 T10061100 56004

More Conditions Fewer Conditions

10-Day Weather Forecast

Almanac

Astronomie

Jan. 30, 2015 Lever Coucher
Temps réel
Crépuscule civil
Crépuscule nautique
Crépuscule astronomique
Lune
Durée de lumière visible
Longueur du jour
Tomorrow will be .
, % of the Moon is Illuminated

Extrêmes aujourd'hui

State Highs State Lows

Community

WunderPhotos

Upload Photos

1,791,897 Photos téléchargées !

WunderBlogs® & News

Nearby

Qualité de l'air

  Qualité de l'air Indice de la qualité de l'air Polluant
Not available.

Épaisseur de neige

Station Depth Altitude

Activité sismique

Ville Distance Mag. Time & Date
Minimum magnitude displayed is 2.5.

Températures des eaux côtières

Lieu Température

Stations météo à proximité